sensor_id;sensor_type;location;lat;lon;timestamp;pressure;altitude;pressure_sealevel;temperature;humidity
25420;BME280;13354;48.174;11.566;2023-08-30T00:00:17;95121.59;;;13.38;100.00
25420;BME280;13354;48.174;11.566;2023-08-30T00:02:45;95116.78;;;13.28;100.00
25420;BME280;13354;48.174;11.566;2023-08-30T00:05:11;95115.53;;;13.31;100.00
25420;BME280;13354;48.174;11.566;2023-08-30T00:07:37;95113.50;;;13.33;100.00
25420;BME280;13354;48.174;11.566;2023-08-30T00:10:02;95114.94;;;13.29;100.00
25420;BME280;13354;48.174;11.566;2023-08-30T00:12:28;95109.53;;;13.17;100.00
25420;BME280;13354;48.174;11.566;2023-08-30T00:14:54;95109.31;;;13.19;100.00
25420;BME280;13354;48.174;11.566;2023-08-30T00:17:20;95108.28;;;13.20;100.00
25420;BME280;13354;48.174;11.566;2023-08-30T00:19:45;95104.06;;;13.12;100.00
25420;BME280;13354;48.174;11.566;2023-08-30T00:22:11;95109.47;;;13.05;100.00
25420;BME280;13354;48.174;11.566;2023-08-30T00:24:37;95106.44;;;13.02;100.00
25420;BME280;13354;48.174;11.566;2023-08-30T00:27:03;95114.03;;;13.17;100.00
25420;BME280;13354;48.174;11.566;2023-08-30T00:29:28;95114.72;;;13.12;100.00
25420;BME280;13354;48.174;11.566;2023-08-30T00:31:54;95118.84;;;13.08;100.00
25420;BME280;13354;48.174;11.566;2023-08-30T00:34:20;95112.50;;;13.09;100.00
25420;BME280;13354;48.174;11.566;2023-08-30T00:36:45;95110.28;;;13.06;100.00
25420;BME280;13354;48.174;11.566;2023-08-30T00:39:11;95106.09;;;13.35;100.00
25420;BME280;13354;48.174;11.566;2023-08-30T00:41:36;95105.19;;;13.23;100.00
25420;BME280;13354;48.174;11.566;2023-08-30T00:44:01;95112.06;;;13.31;100.00
25420;BME280;13354;48.174;11.566;2023-08-30T00:46:27;95111.72;;;13.27;100.00
25420;BME280;13354;48.174;11.566;2023-08-30T00:48:53;95110.22;;;13.31;100.00
25420;BME280;13354;48.174;11.566;2023-08-30T00:51:19;95112.75;;;13.26;100.00
25420;BME280;13354;48.174;11.566;2023-08-30T00:53:44;95103.72;;;13.09;100.00
25420;BME280;13354;48.174;11.566;2023-08-30T00:56:10;95105.63;;;13.20;100.00
25420;BME280;13354;48.174;11.566;2023-08-30T00:58:36;95101.63;;;13.11;100.00
25420;BME280;13354;48.174;11.566;2023-08-30T01:01:03;95107.97;;;13.10;100.00
25420;BME280;13354;48.174;11.566;2023-08-30T01:03:32;95111.34;;;13.23;100.00
25420;BME280;13354;48.174;11.566;2023-08-30T01:05:57;95110.91;;;13.26;100.00
25420;BME280;13354;48.174;11.566;2023-08-30T01:08:22;95105.47;;;12.96;100.00
25420;BME280;13354;48.174;11.566;2023-08-30T01:13:37;95113.66;;;13.13;100.00
25420;BME280;13354;48.174;11.566;2023-08-30T01:16:05;95119.50;;;13.03;100.00
25420;BME280;13354;48.174;11.566;2023-08-30T01:18:34;95114.09;;;12.92;100.00
25420;BME280;13354;48.174;11.566;2023-08-30T01:21:02;95111.28;;;12.87;100.00
25420;BME280;13354;48.174;11.566;2023-08-30T01:23:50;95111.16;;;12.81;100.00
25420;BME280;13354;48.174;11.566;2023-08-30T01:29:03;95107.31;;;12.96;100.00
25420;BME280;13354;48.174;11.566;2023-08-30T01:31:31;95103.56;;;13.03;100.00
25420;BME280;13354;48.174;11.566;2023-08-30T01:33:59;95095.81;;;13.02;100.00
25420;BME280;13354;48.174;11.566;2023-08-30T01:36:24;95100.22;;;12.90;100.00
25420;BME280;13354;48.174;11.566;2023-08-30T01:38:50;95102.28;;;13.06;100.00
25420;BME280;13354;48.174;11.566;2023-08-30T01:41:16;95095.38;;;13.05;100.00
25420;BME280;13354;48.174;11.566;2023-08-30T01:43:43;95097.72;;;13.13;100.00
25420;BME280;13354;48.174;11.566;2023-08-30T01:46:09;95102.28;;;13.06;100.00
25420;BME280;13354;48.174;11.566;2023-08-30T01:48:35;95105.97;;;12.87;100.00
25420;BME280;13354;48.174;11.566;2023-08-30T01:51:02;95100.00;;;12.91;100.00
25420;BME280;13354;48.174;11.566;2023-08-30T01:53:27;95100.38;;;12.95;100.00
25420;BME280;13354;48.174;11.566;2023-08-30T01:55:53;95101.78;;;12.79;100.00
25420;BME280;13354;48.174;11.566;2023-08-30T01:58:19;95100.91;;;12.85;100.00
25420;BME280;13354;48.174;11.566;2023-08-30T02:00:45;95102.81;;;12.78;100.00
25420;BME280;13354;48.174;11.566;2023-08-30T02:03:12;95103.81;;;12.77;100.00
25420;BME280;13354;48.174;11.566;2023-08-30T02:05:44;95103.47;;;12.92;100.00
25420;BME280;13354;48.174;11.566;2023-08-30T02:08:15;95112.59;;;12.77;100.00
25420;BME280;13354;48.174;11.566;2023-08-30T02:10:48;95107.13;;;12.72;100.00
25420;BME280;13354;48.174;11.566;2023-08-30T02:13:18;95099.88;;;12.86;100.00
25420;BME280;13354;48.174;11.566;2023-08-30T02:15:47;95103.47;;;12.92;100.00
25420;BME280;13354;48.174;11.566;2023-08-30T02:18:13;95107.81;;;12.86;100.00
25420;BME280;13354;48.174;11.566;2023-08-30T02:20:38;95104.47;;;12.72;100.00
25420;BME280;13354;48.174;11.566;2023-08-30T02:23:04;95104.47;;;12.72;100.00
25420;BME280;13354;48.174;11.566;2023-08-30T02:25:29;95096.47;;;12.79;100.00
25420;BME280;13354;48.174;11.566;2023-08-30T02:27:54;95104.13;;;12.87;100.00
25420;BME280;13354;48.174;11.566;2023-08-30T02:30:19;95099.34;;;12.96;100.00
25420;BME280;13354;48.174;11.566;2023-08-30T02:32:45;95096.97;;;12.88;100.00
25420;BME280;13354;48.174;11.566;2023-08-30T02:35:10;95097.28;;;12.98;100.00
25420;BME280;13354;48.174;11.566;2023-08-30T02:37:36;95094.47;;;12.93;100.00
25420;BME280;13354;48.174;11.566;2023-08-30T02:40:02;95102.72;;;12.85;100.00
25420;BME280;13354;48.174;11.566;2023-08-30T02:42:28;95096.22;;;12.80;100.00
25420;BME280;13354;48.174;11.566;2023-08-30T02:44:53;95094.84;;;12.96;100.00
25420;BME280;13354;48.174;11.566;2023-08-30T02:47:18;95100.53;;;13.00;100.00
25420;BME280;13354;48.174;11.566;2023-08-30T02:49:44;95098.63;;;13.07;100.00
25420;BME280;13354;48.174;11.566;2023-08-30T02:52:09;95095.66;;;13.15;100.00
25420;BME280;13354;48.174;11.566;2023-08-30T02:54:34;95093.75;;;13.04;100.00
25420;BME280;13354;48.174;11.566;2023-08-30T02:57:00;95096.59;;;13.02;100.00
25420;BME280;13354;48.174;11.566;2023-08-30T02:59:25;95099.06;;;13.04;100.00
25420;BME280;13354;48.174;11.566;2023-08-30T03:01:50;95104.28;;;12.92;100.00
25420;BME280;13354;48.174;11.566;2023-08-30T03:04:15;95104.28;;;12.92;100.00
25420;BME280;13354;48.174;11.566;2023-08-30T03:06:41;95105.97;;;12.87;100.00
25420;BME280;13354;48.174;11.566;2023-08-30T03:09:06;95095.97;;;12.89;100.00
25420;BME280;13354;48.174;11.566;2023-08-30T03:11:33;95101.41;;;12.94;100.00
25420;BME280;13354;48.174;11.566;2023-08-30T03:13:58;95101.47;;;12.87;100.00
25420;BME280;13354;48.174;11.566;2023-08-30T03:16:23;95105.22;;;12.79;100.00
25420;BME280;13354;48.174;11.566;2023-08-30T03:18:49;95105.84;;;12.81;100.00
25420;BME280;13354;48.174;11.566;2023-08-30T03:21:15;95099.53;;;12.76;100.00
25420;BME280;13354;48.174;11.566;2023-08-30T03:23:41;95099.31;;;12.77;100.00
25420;BME280;13354;48.174;11.566;2023-08-30T03:26:14;95100.53;;;12.81;100.00
25420;BME280;13354;48.174;11.566;2023-08-30T03:28:40;95087.81;;;12.84;100.00
25420;BME280;13354;48.174;11.566;2023-08-30T03:31:12;95097.88;;;12.81;100.00
25420;BME280;13354;48.174;11.566;2023-08-30T03:33:38;95088.69;;;12.77;100.00
25420;BME280;13354;48.174;11.566;2023-08-30T03:36:04;95097.03;;;12.81;100.00
25420;BME280;13354;48.174;11.566;2023-08-30T03:38:29;95088.56;;;12.91;100.00
25420;BME280;13354;48.174;11.566;2023-08-30T03:40:54;95098.03;;;13.05;100.00
25420;BME280;13354;48.174;11.566;2023-08-30T03:43:20;95094.31;;;13.06;100.00
25420;BME280;13354;48.174;11.566;2023-08-30T03:45:46;95094.94;;;13.08;100.00
25420;BME280;13354;48.174;11.566;2023-08-30T03:48:11;95095.59;;;13.03;100.00
25420;BME280;13354;48.174;11.566;2023-08-30T03:50:36;95099.06;;;13.04;100.00
25420;BME280;13354;48.174;11.566;2023-08-30T03:53:01;95097.22;;;13.23;100.00
25420;BME280;13354;48.174;11.566;2023-08-30T03:55:27;95094.63;;;12.98;100.00
25420;BME280;13354;48.174;11.566;2023-08-30T03:57:52;95093.16;;;13.02;100.00
25420;BME280;13354;48.174;11.566;2023-08-30T04:00:17;95096.47;;;12.97;100.00
25420;BME280;13354;48.174;11.566;2023-08-30T04:02:43;95095.28;;;13.12;100.00
25420;BME280;13354;48.174;11.566;2023-08-30T04:05:09;95099.06;;;13.04;100.00
25420;BME280;13354;48.174;11.566;2023-08-30T04:07:37;95096.03;;;13.00;100.00
25420;BME280;13354;48.174;11.566;2023-08-30T04:10:03;95095.00;;;13.01;100.00
25420;BME280;13354;48.174;11.566;2023-08-30T04:12:32;95097.88;;;13.00;100.00
25420;BME280;13354;48.174;11.566;2023-08-30T04:14:57;95098.63;;;13.07;100.00
25420;BME280;13354;48.174;11.566;2023-08-30T04:17:23;95104.66;;;12.96;100.00
25420;BME280;13354;48.174;11.566;2023-08-30T04:19:51;95097.56;;;12.90;100.00
25420;BME280;13354;48.174;11.566;2023-08-30T04:22:17;95097.56;;;12.90;100.00
25420;BME280;13354;48.174;11.566;2023-08-30T04:24:42;95096.16;;;13.05;100.00
25420;BME280;13354;48.174;11.566;2023-08-30T04:27:07;95103.78;;;13.02;100.00
25420;BME280;13354;48.174;11.566;2023-08-30T04:29:32;95100.25;;;13.08;100.00
25420;BME280;13354;48.174;11.566;2023-08-30T04:31:58;95091.28;;;13.02;100.00
25420;BME280;13354;48.174;11.566;2023-08-30T04:34:23;95096.91;;;13.13;100.00
25420;BME280;13354;48.174;11.566;2023-08-30T04:36:48;95104.28;;;12.92;100.00
25420;BME280;13354;48.174;11.566;2023-08-30T04:39:14;95101.19;;;12.95;100.00
25420;BME280;13354;48.174;11.566;2023-08-30T04:41:39;95093.94;;;13.02;100.00
25420;BME280;13354;48.174;11.566;2023-08-30T04:44:04;95105.97;;;12.87;100.00
25420;BME280;13354;48.174;11.566;2023-08-30T04:46:30;95101.34;;;12.82;100.00
25420;BME280;13354;48.174;11.566;2023-08-30T04:48:55;95100.53;;;13.00;100.00
25420;BME280;13354;48.174;11.566;2023-08-30T04:51:20;95096.16;;;12.87;100.00
25420;BME280;13354;48.174;11.566;2023-08-30T04:53:45;95105.47;;;12.96;100.00
25420;BME280;13354;48.174;11.566;2023-08-30T04:56:14;95097.66;;;13.01;100.00
25420;BME280;13354;48.174;11.566;2023-08-30T04:58:39;95096.31;;;12.92;100.00
25420;BME280;13354;48.174;11.566;2023-08-30T05:01:05;95102.22;;;12.94;100.00
25420;BME280;13354;48.174;11.566;2023-08-30T05:03:32;95105.97;;;12.87;100.00
25420;BME280;13354;48.174;11.566;2023-08-30T05:05:57;95106.34;;;12.90;100.00
25420;BME280;13354;48.174;11.566;2023-08-30T05:08:22;95111.81;;;12.95;100.00
25420;BME280;13354;48.174;11.566;2023-08-30T05:10:48;95108.34;;;12.95;100.00
25420;BME280;13354;48.174;11.566;2023-08-30T05:13:16;95111.66;;;12.90;100.00
25420;BME280;13354;48.174;11.566;2023-08-30T05:15:41;95102.22;;;12.94;100.00
25420;BME280;13354;48.174;11.566;2023-08-30T05:18:06;95110.94;;;13.01;100.00
25420;BME280;13354;48.174;11.566;2023-08-30T05:20:32;95099.19;;;13.09;100.00
25420;BME280;13354;48.174;11.566;2023-08-30T05:22:57;95106.88;;;12.99;100.00
25420;BME280;13354;48.174;11.566;2023-08-30T05:25:22;95107.69;;;12.99;100.00
25420;BME280;13354;48.174;11.566;2023-08-30T05:27:48;95111.16;;;13.00;100.00
25420;BME280;13354;48.174;11.566;2023-08-30T05:30:13;95117.34;;;12.94;100.00
25420;BME280;13354;48.174;11.566;2023-08-30T05:32:38;95117.13;;;12.95;100.00
25420;BME280;13354;48.174;11.566;2023-08-30T05:35:04;95118.09;;;13.01;100.00
25420;BME280;13354;48.174;11.566;2023-08-30T05:37:29;95119.97;;;13.19;100.00
25420;BME280;13354;48.174;11.566;2023-08-30T05:39:57;95117.47;;;13.24;100.00
25420;BME280;13354;48.174;11.566;2023-08-30T05:42:22;95111.91;;;13.07;100.00
25420;BME280;13354;48.174;11.566;2023-08-30T05:44:47;95114.63;;;13.19;100.00
25420;BME280;13354;48.174;11.566;2023-08-30T05:47:13;95107.69;;;13.18;100.00
25420;BME280;13354;48.174;11.566;2023-08-30T05:49:40;95111.06;;;13.06;100.00
25420;BME280;13354;48.174;11.566;2023-08-30T05:52:06;95106.50;;;12.95;100.00
25420;BME280;13354;48.174;11.566;2023-08-30T05:54:31;95110.25;;;12.88;100.00
25420;BME280;13354;48.174;11.566;2023-08-30T05:56:58;95106.38;;;13.09;100.00
25420;BME280;13354;48.174;11.566;2023-08-30T05:59:24;95110.69;;;13.03;100.00
25420;BME280;13354;48.174;11.566;2023-08-30T06:01:49;95115.81;;;12.86;100.00
25420;BME280;13354;48.174;11.566;2023-08-30T06:04:14;95116.03;;;13.21;100.00
25420;BME280;13354;48.174;11.566;2023-08-30T06:06:40;95115.59;;;13.06;100.00
25420;BME280;13354;48.174;11.566;2023-08-30T06:09:05;95120.00;;;12.94;100.00
25420;BME280;13354;48.174;11.566;2023-08-30T06:11:30;95118.59;;;12.91;100.00
25420;BME280;13354;48.174;11.566;2023-08-30T06:13:57;95123.53;;;12.88;100.00
25420;BME280;13354;48.174;11.566;2023-08-30T06:16:24;95124.16;;;13.08;100.00
25420;BME280;13354;48.174;11.566;2023-08-30T06:18:49;95117.00;;;13.09;100.00
25420;BME280;13354;48.174;11.566;2023-08-30T06:21:14;95115.50;;;13.13;100.00
25420;BME280;13354;48.174;11.566;2023-08-30T06:23:40;95125.84;;;13.21;100.00
25420;BME280;13354;48.174;11.566;2023-08-30T06:26:05;95131.94;;;13.28;100.00
25420;BME280;13354;48.174;11.566;2023-08-30T06:28:30;95139.19;;;13.14;100.00
25420;BME280;13354;48.174;11.566;2023-08-30T06:30:56;95131.91;;;13.10;100.00
25420;BME280;13354;48.174;11.566;2023-08-30T06:33:22;95124.97;;;13.09;100.00
25420;BME280;13354;48.174;11.566;2023-08-30T06:35:48;95135.03;;;13.43;100.00
25420;BME280;13354;48.174;11.566;2023-08-30T06:38:15;95121.22;;;13.35;100.00
25420;BME280;13354;48.174;11.566;2023-08-30T06:40:47;95118.28;;;13.24;100.00
25420;BME280;13354;48.174;11.566;2023-08-30T06:43:12;95123.59;;;13.24;100.00
25420;BME280;13354;48.174;11.566;2023-08-30T06:45:38;95115.41;;;13.44;100.00
25420;BME280;13354;48.174;11.566;2023-08-30T06:48:05;95121.22;;;13.35;100.00
25420;BME280;13354;48.174;11.566;2023-08-30T06:50:31;95127.78;;;13.50;100.00
25420;BME280;13354;48.174;11.566;2023-08-30T06:52:56;95121.22;;;13.35;100.00
25420;BME280;13354;48.174;11.566;2023-08-30T06:55:21;95121.28;;;13.46;100.00
25420;BME280;13354;48.174;11.566;2023-08-30T06:57:48;95124.50;;;13.37;100.00
25420;BME280;13354;48.174;11.566;2023-08-30T07:00:15;95124.69;;;13.53;100.00
25420;BME280;13354;48.174;11.566;2023-08-30T07:02:41;95132.16;;;13.45;100.00
25420;BME280;13354;48.174;11.566;2023-08-30T07:05:10;95133.41;;;13.42;100.00
25420;BME280;13354;48.174;11.566;2023-08-30T07:07:35;95131.25;;;13.51;100.00
25420;BME280;13354;48.174;11.566;2023-08-30T07:10:00;95126.53;;;13.53;100.00
25420;BME280;13354;48.174;11.566;2023-08-30T07:12:26;95120.69;;;13.63;100.00
25420;BME280;13354;48.174;11.566;2023-08-30T07:14:51;95128.00;;;13.67;100.00
25420;BME280;13354;48.174;11.566;2023-08-30T07:17:16;95120.94;;;13.73;100.00
25420;BME280;13354;48.174;11.566;2023-08-30T07:19:42;95119.34;;;13.72;100.00
25420;BME280;13354;48.174;11.566;2023-08-30T07:22:07;95112.97;;;13.73;100.00
25420;BME280;13354;48.174;11.566;2023-08-30T07:24:32;95117.78;;;13.64;100.00
25420;BME280;13354;48.174;11.566;2023-08-30T07:26:58;95115.09;;;13.83;100.00
25420;BME280;13354;48.174;11.566;2023-08-30T07:29:23;95119.34;;;13.72;100.00
25420;BME280;13354;48.174;11.566;2023-08-30T07:31:48;95121.72;;;13.62;100.00
25420;BME280;13354;48.174;11.566;2023-08-30T07:34:16;95114.13;;;13.77;100.00
25420;BME280;13354;48.174;11.566;2023-08-30T07:36:41;95122.41;;;13.87;100.00
25420;BME280;13354;48.174;11.566;2023-08-30T07:39:07;95121.78;;;13.73;100.00
25420;BME280;13354;48.174;11.566;2023-08-30T07:41:33;95124.44;;;13.73;100.00
25420;BME280;13354;48.174;11.566;2023-08-30T07:43:59;95128.41;;;13.83;100.00
25420;BME280;13354;48.174;11.566;2023-08-30T07:46:24;95122.28;;;13.82;100.00
25420;BME280;13354;48.174;11.566;2023-08-30T07:48:50;95124.56;;;13.78;100.00
25420;BME280;13354;48.174;11.566;2023-08-30T07:51:16;95129.97;;;13.72;100.00
25420;BME280;13354;48.174;11.566;2023-08-30T07:53:41;95134.03;;;13.74;100.00
25420;BME280;13354;48.174;11.566;2023-08-30T07:56:06;95133.34;;;13.79;100.00
25420;BME280;13354;48.174;11.566;2023-08-30T07:58:32;95136.25;;;13.77;100.00
25420;BME280;13354;48.174;11.566;2023-08-30T08:00:58;95144.41;;;13.94;100.00
25420;BME280;13354;48.174;11.566;2023-08-30T08:03:23;95143.47;;;13.89;100.00
25420;BME280;13354;48.174;11.566;2023-08-30T08:05:48;95148.63;;;13.84;100.00
25420;BME280;13354;48.174;11.566;2023-08-30T08:08:14;95141.34;;;13.79;100.00
25420;BME280;13354;48.174;11.566;2023-08-30T08:10:40;95142.66;;;13.88;100.00
25420;BME280;13354;48.174;11.566;2023-08-30T08:13:07;95132.47;;;13.85;100.00
25420;BME280;13354;48.174;11.566;2023-08-30T08:15:32;95145.09;;;13.90;100.00
25420;BME280;13354;48.174;11.566;2023-08-30T08:17:59;95139.88;;;13.95;100.00
25420;BME280;13354;48.174;11.566;2023-08-30T08:20:24;95141.56;;;14.08;100.00
25420;BME280;13354;48.174;11.566;2023-08-30T08:22:49;95146.03;;;14.25;100.00
25420;BME280;13354;48.174;11.566;2023-08-30T08:25:15;95145.44;;;14.23;99.24
25420;BME280;13354;48.174;11.566;2023-08-30T08:27:41;95151.94;;;14.39;98.71
25420;BME280;13354;48.174;11.566;2023-08-30T08:30:07;95145.16;;;14.43;98.42
25420;BME280;13354;48.174;11.566;2023-08-30T08:32:32;95144.59;;;14.65;97.54
25420;BME280;13354;48.174;11.566;2023-08-30T08:34:58;95151.94;;;14.69;95.39
25420;BME280;13354;48.174;11.566;2023-08-30T08:37:23;95154.69;;;14.86;94.41
25420;BME280;13354;48.174;11.566;2023-08-30T08:39:49;95145.34;;;14.95;93.40
25420;BME280;13354;48.174;11.566;2023-08-30T08:42:17;95147.16;;;14.83;92.61
25420;BME280;13354;48.174;11.566;2023-08-30T08:44:43;95139.41;;;15.05;93.63
25420;BME280;13354;48.174;11.566;2023-08-30T08:47:08;95143.38;;;15.03;93.68
25420;BME280;13354;48.174;11.566;2023-08-30T08:49:34;95143.34;;;15.14;92.79
25420;BME280;13354;48.174;11.566;2023-08-30T08:52:00;95138.59;;;15.28;92.06
25420;BME280;13354;48.174;11.566;2023-08-30T08:54:25;95132.38;;;15.51;91.90
25420;BME280;13354;48.174;11.566;2023-08-30T08:56:52;95137.88;;;15.85;89.09
25420;BME280;13354;48.174;11.566;2023-08-30T08:59:19;95131.50;;;16.14;85.52
25420;BME280;13354;48.174;11.566;2023-08-30T09:01:44;95136.22;;;16.41;84.02
25420;BME280;13354;48.174;11.566;2023-08-30T09:04:11;95130.88;;;16.41;81.47
25420;BME280;13354;48.174;11.566;2023-08-30T09:06:38;95126.84;;;16.72;81.43
25420;BME280;13354;48.174;11.566;2023-08-30T09:09:05;95127.09;;;16.87;80.07
25420;BME280;13354;48.174;11.566;2023-08-30T09:11:31;95127.97;;;16.93;79.39
25420;BME280;13354;48.174;11.566;2023-08-30T09:13:57;95122.13;;;17.13;77.34
25420;BME280;13354;48.174;11.566;2023-08-30T09:16:22;95120.47;;;17.29;75.01
25420;BME280;13354;48.174;11.566;2023-08-30T09:19:03;95109.91;;;17.61;74.63
25420;BME280;13354;48.174;11.566;2023-08-30T09:21:29;95112.13;;;17.47;74.09
25420;BME280;13354;48.174;11.566;2023-08-30T09:24:02;95110.22;;;17.43;71.55
25420;BME280;13354;48.174;11.566;2023-08-30T09:26:28;95110.69;;;17.39;72.57
25420;BME280;13354;48.174;11.566;2023-08-30T09:29:06;95106.03;;;17.96;73.05
25420;BME280;13354;48.174;11.566;2023-08-30T09:31:39;95106.09;;;18.01;68.85
25420;BME280;13354;48.174;11.566;2023-08-30T09:34:06;95109.91;;;18.10;66.87
25420;BME280;13354;48.174;11.566;2023-08-30T09:36:39;95107.97;;;18.59;69.46
25420;BME280;13354;48.174;11.566;2023-08-30T09:39:12;95108.53;;;18.99;67.29
25420;BME280;13354;48.174;11.566;2023-08-30T09:44:17;95100.84;;;19.13;66.06
25420;BME280;13354;48.174;11.566;2023-08-30T09:46:54;95099.72;;;19.56;63.31
25420;BME280;13354;48.174;11.566;2023-08-30T09:49:24;95104.25;;;19.45;63.50
25420;BME280;13354;48.174;11.566;2023-08-30T09:51:51;95100.38;;;19.78;63.80
25420;BME280;13354;48.174;11.566;2023-08-30T09:54:21;95099.66;;;19.41;61.93
25420;BME280;13354;48.174;11.566;2023-08-30T09:56:47;95092.56;;;19.72;61.33
25420;BME280;13354;48.174;11.566;2023-08-30T09:59:14;95091.69;;;19.61;61.74
25420;BME280;13354;48.174;11.566;2023-08-30T10:01:42;95081.81;;;19.77;61.53
25420;BME280;13354;48.174;11.566;2023-08-30T10:04:09;95082.53;;;19.52;61.48
25420;BME280;13354;48.174;11.566;2023-08-30T10:06:35;95078.03;;;19.10;61.00
25420;BME280;13354;48.174;11.566;2023-08-30T10:09:02;95089.22;;;18.97;64.25
25420;BME280;13354;48.174;11.566;2023-08-30T10:11:29;95081.00;;;18.71;65.96
25420;BME280;13354;48.174;11.566;2023-08-30T10:13:54;95079.28;;;18.60;66.60
25420;BME280;13354;48.174;11.566;2023-08-30T10:16:22;95074.34;;;18.15;67.18
25420;BME280;13354;48.174;11.566;2023-08-30T10:18:53;95072.00;;;17.96;67.41
25420;BME280;13354;48.174;11.566;2023-08-30T10:21:20;95076.44;;;17.85;68.18
25420;BME280;13354;48.174;11.566;2023-08-30T10:23:49;95071.09;;;17.63;68.87
25420;BME280;13354;48.174;11.566;2023-08-30T10:26:16;95076.84;;;17.28;70.60
25420;BME280;13354;48.174;11.566;2023-08-30T10:28:43;95067.94;;;17.23;70.42
25420;BME280;13354;48.174;11.566;2023-08-30T10:31:09;95069.25;;;17.20;70.57
25420;BME280;13354;48.174;11.566;2023-08-30T10:33:48;95073.44;;;17.33;70.61
25420;BME280;13354;48.174;11.566;2023-08-30T10:36:20;95074.13;;;17.23;70.94
25420;BME280;13354;48.174;11.566;2023-08-30T10:38:49;95071.69;;;17.22;70.92
25420;BME280;13354;48.174;11.566;2023-08-30T10:41:19;95062.66;;;17.06;70.21
25420;BME280;13354;48.174;11.566;2023-08-30T10:43:50;95068.81;;;17.28;70.01
25420;BME280;13354;48.174;11.566;2023-08-30T10:46:16;95073.91;;;17.52;70.98
25420;BME280;13354;48.174;11.566;2023-08-30T10:48:41;95062.22;;;17.80;70.54
25420;BME280;13354;48.174;11.566;2023-08-30T10:51:21;95071.81;;;17.76;68.65
25420;BME280;13354;48.174;11.566;2023-08-30T10:53:58;95058.22;;;18.09;68.03
25420;BME280;13354;48.174;11.566;2023-08-30T10:56:30;95056.44;;;18.20;67.75
25420;BME280;13354;48.174;11.566;2023-08-30T10:58:56;95062.19;;;18.34;68.69
25420;BME280;13354;48.174;11.566;2023-08-30T11:01:22;95056.53;;;18.30;68.87
25420;BME280;13354;48.174;11.566;2023-08-30T11:03:49;95062.34;;;18.54;64.87
25420;BME280;13354;48.174;11.566;2023-08-30T11:06:15;95059.47;;;18.66;62.92
25420;BME280;13354;48.174;11.566;2023-08-30T11:08:43;95062.53;;;18.75;63.51
25420;BME280;13354;48.174;11.566;2023-08-30T11:11:10;95062.56;;;18.80;62.62
25420;BME280;13354;48.174;11.566;2023-08-30T11:13:36;95065.59;;;18.94;61.97
25420;BME280;13354;48.174;11.566;2023-08-30T11:16:02;95050.03;;;18.96;62.80
25420;BME280;13354;48.174;11.566;2023-08-30T11:18:29;95050.22;;;19.26;64.86
25420;BME280;13354;48.174;11.566;2023-08-30T11:21:02;95048.44;;;19.52;61.68
25420;BME280;13354;48.174;11.566;2023-08-30T11:23:28;95051.22;;;19.88;60.77
25420;BME280;13354;48.174;11.566;2023-08-30T11:25:54;95041.63;;;20.33;59.03
25420;BME280;13354;48.174;11.566;2023-08-30T11:28:25;95045.41;;;20.47;57.80
25420;BME280;13354;48.174;11.566;2023-08-30T11:30:54;95035.72;;;20.62;55.61
25420;BME280;13354;48.174;11.566;2023-08-30T11:33:22;95031.13;;;20.83;54.16
25420;BME280;13354;48.174;11.566;2023-08-30T11:35:49;95031.88;;;21.09;53.18
25420;BME280;13354;48.174;11.566;2023-08-30T11:38:17;95031.13;;;20.83;53.31
25420;BME280;13354;48.174;11.566;2023-08-30T11:40:43;95030.09;;;20.53;53.95
25420;BME280;13354;48.174;11.566;2023-08-30T11:43:09;95037.06;;;20.44;55.35
25420;BME280;13354;48.174;11.566;2023-08-30T11:45:35;95043.50;;;20.17;55.50
25420;BME280;13354;48.174;11.566;2023-08-30T11:48:00;95039.69;;;19.88;55.53
25420;BME280;13354;48.174;11.566;2023-08-30T11:50:27;95040.06;;;19.44;57.06
25420;BME280;13354;48.174;11.566;2023-08-30T11:52:53;95039.66;;;19.10;58.09
25420;BME280;13354;48.174;11.566;2023-08-30T11:55:20;95042.25;;;18.94;57.87
25420;BME280;13354;48.174;11.566;2023-08-30T11:57:49;95044.63;;;18.86;58.54
25420;BME280;13354;48.174;11.566;2023-08-30T12:00:15;95043.56;;;18.87;59.25
25420;BME280;13354;48.174;11.566;2023-08-30T12:02:43;95036.31;;;18.82;60.01
25420;BME280;13354;48.174;11.566;2023-08-30T12:05:13;95036.41;;;18.65;61.13
25420;BME280;13354;48.174;11.566;2023-08-30T12:07:39;95033.72;;;19.02;62.06
25420;BME280;13354;48.174;11.566;2023-08-30T12:10:09;95027.81;;;19.63;58.98
25420;BME280;13354;48.174;11.566;2023-08-30T12:12:35;95032.22;;;20.46;56.40
25420;BME280;13354;48.174;11.566;2023-08-30T12:15:10;95024.84;;;21.18;54.29
25420;BME280;13354;48.174;11.566;2023-08-30T12:17:35;95020.09;;;20.79;52.54
25420;BME280;13354;48.174;11.566;2023-08-30T12:20:01;95015.25;;;20.81;54.58
25420;BME280;13354;48.174;11.566;2023-08-30T12:22:40;95018.25;;;20.54;56.05
25420;BME280;13354;48.174;11.566;2023-08-30T12:25:22;95006.41;;;20.35;55.85
25420;BME280;13354;48.174;11.566;2023-08-30T12:27:52;95020.63;;;19.94;56.66
25420;BME280;13354;48.174;11.566;2023-08-30T12:30:18;95018.97;;;19.73;57.41
25420;BME280;13354;48.174;11.566;2023-08-30T12:32:47;95014.72;;;19.87;58.25
25420;BME280;13354;48.174;11.566;2023-08-30T12:35:12;95016.59;;;19.82;57.63
25420;BME280;13354;48.174;11.566;2023-08-30T12:37:38;95014.34;;;19.58;58.53
25420;BME280;13354;48.174;11.566;2023-08-30T12:40:03;95013.50;;;19.47;58.88
25420;BME280;13354;48.174;11.566;2023-08-30T12:42:29;95009.88;;;19.74;57.33
25420;BME280;13354;48.174;11.566;2023-08-30T12:44:54;95013.88;;;19.66;57.87
25420;BME280;13354;48.174;11.566;2023-08-30T12:47:19;95010.44;;;20.01;56.74